Londyn, Wielka Brytania

00:10 GMT dnia 01-listopad-2014 (GMT +0000)
Heathrow | Change Station
CLOSE
Current Station
Lotnisko
Location: London,
n.p.m.: 79 ft
Najbliższa stacja pogodowa

Wysokość 79 ft 51.48 °N, 0.46 °W | Updated 20 minutes ago

Clear
pogodnie
61 ° F
Odczuwalna 61 ° F
Płn.
10
Wiatr zmienny Wiatr od południowy

Dziś
Wysoka -- | Niska -- ° F
--% Prawdop. opadów
Wczoraj
Wysoka -- | Niska -- ° F
Precip. -- cali
6:54 AM 4:35 PM
Pierwsza kwadra, 60% visible
Ciśnienie 29.98 cali
Widzialność -9999.0 mil
chmury
Punkt rosy 55 ° F
Wilgotność 82%
Opady deszczu 0.00 cali
grubość pokrywy śnieżnej Niedostępne.
UV Niedostępne.
Pyłki Niedostępne.
Jakość powietrza Niedostępne.
Flu Activity Niedostępne.
METAR EGLL 312350Z 19009KT CAVOK 16/13 Q1015 NOSIG

More Conditions Fewer Conditions

Ciśnienie 29.98 cali
Widzialność -9999.0 mil
chmury
Punkt rosy 55 ° F
Wilgotność 82%
Opady deszczu 0.00 cali
grubość pokrywy śnieżnej Niedostępne.
UV Niedostępne.
Pyłki Niedostępne.
Jakość powietrza Niedostępne.
Flu Activity Niedostępne.
METAR EGLL 312350Z 19009KT CAVOK 16/13 Q1015 NOSIG

More Conditions Fewer Conditions

10-Day Weather Forecast

Almanac

Astronomia

Nov. 01, 2014 Wschód Zachów
Aktualny czas
Zmierzch cywilny
Zmierzch żeglarski
świt/zmierzch astronomiczny
Księżyc
całkowite oświetlenie
Długość dnia
Tomorrow will be .
, % of the Moon is Illuminated

Dzisiejsze ekstrema

Country Highs Country Lows

Community

WunderPhotos

Upload Photos

1,766,788 zdjęcia zostały przesłane!

WunderBlogs® & News

Nearby

Jakość powietrza

  Jakość powietrza czynnik AQ Zanieczyszczenie
Not available.

Głębokość pokrywy śnieżnej

Station Depth n.p.m.

Aktywność sejsmiczna

Miejscowość Distance Mag. Time & Date
Minimum magnitude displayed is 2.5.

Temperatury wody na wybrzeżu

Miejsce Temperatura

Najbliższa stacja pogodowa